Current Conditions
Mostly Cloudy
Conditions



Pressure
1015.62 (hPa) - 29.99 (inHG)
Visibility

8.0 (mimiles) - 12.9 (km)
   Temperature
66  °F
19°C
63  °F
Dewpoint
88  %
 Humidity
   Wind Speed
5  mph
4  kts
8  km/h
2.2  m/s
   Wind Direction
 170°
Due South
   Airport Data
KDTW
Location Detroit Metropolitan Wayne County 20 mi (32.18 km)
Metar :KDTW 250953Z 17004KT 8SM BKN250 19/17 A2999 RMK AO2 SLP151 T01890172
Mon 25th May 04:53 am
   Raw Metar Info
Raw METAR is the most common format in the world for the transmission of observational weather data. It is highly standardized through the International Civil Aviation Organization (ICAO), which allows it to be understood throughout most of the world.
   API Info
Data Provided by
https://www.checkwx.com/weather/KDTW
   © Info
CSS/SVG/PHP scripts were developed by weather34.com for use in the weather34 template © 2015-2020

Guide Info provided by Metar-Wikipedia